createdAt,value
2019-04-22T00:02:22.188Z,11.50
2019-04-22T00:05:01.114Z,11.50
2019-04-22T00:07:42.029Z,11.40
2019-04-22T00:10:11.524Z,11.50
2019-04-22T00:12:46.864Z,11.50
2019-04-22T00:15:03.695Z,11.40
2019-04-22T00:17:48.218Z,11.40
2019-04-22T00:20:08.722Z,11.40
2019-04-22T00:22:51.591Z,11.40
2019-04-22T00:25:10.471Z,11.30
2019-04-22T00:30:07.293Z,11.30
2019-04-22T00:32:55.944Z,11.20
2019-04-22T00:35:23.728Z,11.10
2019-04-22T00:37:56.706Z,11.00
2019-04-22T00:40:30.616Z,10.80
2019-04-22T00:42:53.801Z,10.70
2019-04-22T00:47:46.704Z,10.60
2019-04-22T00:50:18.994Z,10.60
2019-04-22T00:52:49.406Z,10.70
2019-04-22T00:55:18.187Z,10.70
2019-04-22T00:57:46.267Z,10.70
2019-04-22T01:00:11.911Z,10.80
2019-04-22T01:05:14.911Z,11.00
2019-04-22T01:07:35.797Z,11.00
2019-04-22T01:10:12.771Z,11.00
2019-04-22T01:12:39.514Z,11.00
2019-04-22T01:15:07.073Z,10.90
2019-04-22T01:17:32.918Z,10.80
2019-04-22T01:20:10.423Z,10.80
2019-04-22T01:22:27.209Z,10.70
2019-04-22T01:24:56.142Z,10.60
2019-04-22T01:27:23.435Z,10.40
2019-04-22T01:29:46.745Z,10.30
2019-04-22T01:32:05.920Z,10.30
2019-04-22T01:34:49.321Z,10.20
2019-04-22T01:37:22.806Z,10.10
2019-04-22T01:40:00.134Z,10.00
2019-04-22T01:42:15.742Z,10.10
2019-04-22T01:45:12.085Z,10.20
2019-04-22T01:47:20.764Z,10.20
2019-04-22T01:49:47.537Z,10.20
2019-04-22T01:52:18.659Z,10.20
2019-04-22T01:54:52.712Z,10.10
2019-04-22T01:57:10.961Z,10.20
2019-04-22T01:59:37.116Z,10.30
2019-04-22T02:02:14.055Z,10.40
2019-04-22T02:04:47.623Z,10.40
2019-04-22T02:07:10.788Z,10.40
2019-04-22T02:09:47.578Z,10.40
2019-04-22T02:14:39.426Z,10.40
2019-04-22T02:17:09.172Z,10.40
2019-04-22T02:22:04.078Z,10.30
2019-04-22T02:24:33.301Z,10.20
2019-04-22T02:26:54.560Z,10.10
2019-04-22T02:29:31.042Z,10.00
2019-04-22T02:34:50.646Z,9.80
2019-04-22T02:36:58.211Z,9.80
2019-04-22T02:39:26.153Z,9.70
2019-04-22T02:41:54.999Z,9.80
2019-04-22T02:44:43.252Z,9.90
2019-04-22T02:47:16.885Z,10.10
2019-04-22T02:49:39.271Z,10.20
2019-04-22T02:52:18.023Z,10.40
2019-04-22T02:54:51.004Z,10.40
2019-04-22T02:57:18.792Z,10.40
2019-04-22T02:59:39.307Z,10.40
2019-04-22T03:02:10.341Z,10.50
2019-04-22T03:04:32.299Z,10.40
2019-04-22T03:06:47.334Z,10.40
2019-04-22T03:09:29.941Z,10.40
2019-04-22T03:12:17.232Z,10.40
2019-04-22T03:14:30.135Z,10.40
2019-04-22T03:19:34.049Z,10.40
2019-04-22T03:21:54.655Z,10.40
2019-04-22T03:24:25.719Z,10.40
2019-04-22T03:30:03.709Z,10.20
2019-04-22T03:42:05.251Z,9.80
2019-04-22T03:59:31.811Z,9.60
2019-04-22T04:02:02.542Z,9.60
2019-04-22T04:04:31.195Z,9.60
2019-04-22T04:09:23.856Z,9.50
2019-04-22T04:11:59.875Z,9.50
2019-04-22T04:14:30.186Z,9.60
2019-04-22T04:16:56.130Z,9.60
2019-04-22T04:21:41.896Z,9.70
2019-04-22T04:29:26.015Z,9.80
2019-04-22T04:31:43.293Z,9.80
2019-04-22T04:34:20.031Z,9.80
2019-04-22T04:46:49.693Z,9.90
2019-04-22T04:49:17.732Z,10.00
2019-04-22T04:51:32.985Z,10.00
2019-04-22T04:54:08.097Z,9.90
2019-04-22T04:56:34.807Z,10.00
2019-04-22T05:01:30.900Z,10.00
2019-04-22T05:06:24.255Z,10.20
2019-04-22T05:16:25.440Z,11.10
2019-04-22T05:18:44.771Z,11.20
2019-04-22T05:21:14.220Z,11.20
2019-04-22T05:23:39.399Z,11.20
2019-04-22T05:26:05.737Z,11.40
2019-04-22T05:28:33.745Z,11.50
2019-04-22T05:31:01.578Z,11.60
2019-04-22T05:33:32.432Z,11.70
2019-04-22T05:36:01.571Z,11.80
2019-04-22T05:38:33.141Z,11.80
2019-04-22T05:40:56.580Z,12.00
2019-04-22T05:43:22.639Z,12.10
2019-04-22T05:45:52.771Z,12.20
2019-04-22T05:48:18.872Z,12.30
2019-04-22T05:50:54.009Z,12.40
2019-04-22T05:53:14.842Z,12.30
2019-04-22T05:55:46.664Z,12.40
2019-04-22T05:58:15.630Z,12.40
2019-04-22T06:01:14.408Z,12.60
2019-04-22T06:03:12.383Z,12.80
2019-04-22T06:05:45.257Z,12.90
2019-04-22T06:08:10.209Z,12.90
2019-04-22T06:10:48.604Z,12.90
2019-04-22T06:13:04.428Z,12.90
2019-04-22T06:15:36.188Z,12.90
2019-04-22T06:20:45.502Z,13.00
2019-04-22T06:23:12.643Z,13.00
2019-04-22T06:28:13.626Z,13.20
2019-04-22T06:30:36.673Z,13.20
2019-04-22T06:33:00.821Z,13.30
2019-04-22T06:38:22.819Z,13.20
2019-04-22T06:40:34.261Z,13.30
2019-04-22T06:43:06.055Z,13.40
2019-04-22T06:45:29.133Z,13.50
2019-04-22T06:50:32.790Z,13.90
2019-04-22T06:52:57.182Z,14.10
2019-04-22T06:55:28.690Z,14.40
2019-04-22T06:57:51.273Z,14.50
2019-04-22T07:00:38.625Z,14.60
2019-04-22T07:02:56.383Z,14.90
2019-04-22T07:05:37.676Z,15.00
2019-04-22T07:07:45.295Z,15.00
2019-04-22T07:12:41.777Z,15.30
2019-04-22T07:15:24.199Z,15.60
2019-04-22T07:17:45.802Z,15.60
2019-04-22T07:20:16.112Z,15.90
2019-04-22T07:22:33.922Z,15.80
2019-04-22T07:25:06.118Z,16.00
2019-04-22T07:27:34.546Z,16.10
2019-04-22T07:30:09.278Z,16.00
2019-04-22T07:32:53.768Z,16.10
2019-04-22T07:37:41.971Z,16.20
2019-04-22T07:39:56.598Z,16.40
2019-04-22T07:44:59.116Z,16.60
2019-04-22T07:50:13.183Z,16.70
2019-04-22T07:52:22.824Z,16.80
2019-04-22T07:54:52.483Z,16.90
2019-04-22T07:57:32.573Z,16.90
2019-04-22T07:59:50.462Z,17.20
2019-04-22T08:02:16.051Z,17.40
2019-04-22T08:05:00.569Z,17.70
2019-04-22T08:07:17.713Z,18.00
2019-04-22T08:09:58.031Z,18.20
2019-04-22T08:12:12.851Z,18.30
2019-04-22T08:14:42.270Z,18.50
2019-04-22T08:17:33.061Z,18.80
2019-04-22T08:19:43.021Z,18.80
2019-04-22T08:22:15.725Z,18.90
2019-04-22T08:27:04.867Z,19.10
2019-04-22T08:29:37.664Z,19.30
2019-04-22T08:31:59.497Z,19.60
2019-04-22T08:34:29.963Z,19.60
2019-04-22T08:37:24.053Z,19.70
2019-04-22T08:39:33.161Z,19.90
2019-04-22T08:42:00.064Z,20.00
2019-04-22T08:44:42.245Z,20.40
2019-04-22T08:46:58.723Z,20.90
2019-04-22T08:49:27.859Z,21.10
2019-04-22T08:51:49.533Z,21.40
2019-04-22T08:54:17.956Z,21.80
2019-04-22T08:56:45.625Z,21.80
2019-04-22T09:01:45.293Z,22.10
2019-04-22T09:04:11.703Z,22.30
2019-04-22T09:07:02.763Z,22.30
2019-04-22T09:09:11.438Z,22.40
2019-04-22T09:11:58.048Z,22.60
2019-04-22T09:14:13.948Z,22.80
2019-04-22T09:16:42.814Z,22.70
2019-04-22T09:19:09.971Z,22.50
2019-04-22T09:21:43.338Z,22.60
2019-04-22T09:24:05.289Z,22.60
2019-04-22T09:26:36.259Z,22.50
2019-04-22T09:29:05.072Z,22.40
2019-04-22T09:31:35.923Z,22.40
2019-04-22T09:33:53.172Z,22.70
2019-04-22T09:36:33.752Z,22.80
2019-04-22T09:38:52.899Z,23.00
2019-04-22T09:41:27.659Z,23.30
2019-04-22T09:46:21.566Z,23.30
2019-04-22T09:48:50.149Z,23.10
2019-04-22T09:51:19.035Z,23.00
2019-04-22T09:53:54.785Z,22.90
2019-04-22T09:56:22.426Z,22.90
2019-04-22T09:58:44.648Z,22.70
2019-04-22T10:01:25.842Z,22.90
2019-04-22T10:03:49.737Z,23.00
2019-04-22T10:06:22.327Z,22.90
2019-04-22T10:08:59.313Z,22.90
2019-04-22T10:11:14.371Z,23.00
2019-04-22T10:13:42.465Z,23.00
2019-04-22T10:16:10.793Z,23.30
2019-04-22T10:18:43.509Z,23.60
2019-04-22T10:21:11.929Z,24.00
2019-04-22T10:23:35.976Z,24.40
2019-04-22T10:26:04.569Z,24.80
2019-04-22T10:28:38.483Z,24.40
2019-04-22T10:31:19.756Z,24.40
2019-04-22T10:33:22.110Z,24.10
2019-04-22T10:35:34.181Z,23.80
2019-04-22T10:38:00.948Z,23.70
2019-04-22T10:40:34.556Z,23.80
2019-04-22T10:43:01.441Z,24.00
2019-04-22T10:45:28.344Z,24.00
2019-04-22T10:47:56.053Z,24.00
2019-04-22T10:50:28.142Z,23.70
2019-04-22T10:52:55.342Z,23.60
2019-04-22T10:55:23.400Z,24.00
2019-04-22T10:57:50.735Z,24.60
2019-04-22T11:00:17.743Z,24.60
2019-04-22T11:02:45.702Z,24.50
2019-04-22T11:05:12.736Z,24.20
2019-04-22T11:07:44.032Z,24.10
2019-04-22T11:10:24.155Z,24.00
2019-04-22T11:12:38.027Z,24.00
2019-04-22T11:15:07.611Z,23.90
2019-04-22T11:17:35.558Z,23.70
2019-04-22T11:20:03.698Z,23.80
2019-04-22T11:22:33.965Z,23.70
2019-04-22T11:25:01.179Z,23.80
2019-04-22T11:27:28.667Z,24.00
2019-04-22T11:29:55.592Z,24.00
2019-04-22T11:32:22.596Z,24.00
2019-04-22T11:34:49.331Z,23.90
2019-04-22T11:37:16.625Z,24.10
2019-04-22T11:39:44.890Z,24.20
2019-04-22T11:42:12.108Z,24.20
2019-04-22T11:44:39.205Z,24.30
2019-04-22T11:47:07.489Z,24.30
2019-04-22T11:49:34.411Z,24.20
2019-04-22T11:52:01.159Z,24.60
2019-04-22T11:54:28.610Z,25.20
2019-04-22T11:56:56.785Z,25.70
2019-04-22T11:59:24.920Z,26.10
2019-04-22T12:01:52.957Z,26.50
2019-04-22T12:04:20.205Z,26.70
2019-04-22T12:06:47.031Z,26.80
2019-04-22T12:09:15.465Z,26.60
2019-04-22T12:11:42.499Z,26.70
2019-04-22T12:14:09.752Z,26.80
2019-04-22T12:16:37.196Z,27.10
2019-04-22T12:19:05.067Z,27.40
2019-04-22T12:21:33.058Z,27.40
2019-04-22T12:24:01.134Z,27.40
2019-04-22T12:26:28.701Z,27.40
2019-04-22T12:28:57.181Z,27.20
2019-04-22T12:31:24.119Z,27.50
2019-04-22T12:33:50.908Z,27.70
2019-04-22T12:36:18.210Z,27.80
2019-04-22T12:38:45.350Z,27.80
2019-04-22T12:41:13.999Z,27.30
2019-04-22T12:43:41.074Z,26.80
2019-04-22T12:46:08.010Z,26.70
2019-04-22T12:48:35.109Z,26.70
2019-04-22T12:51:02.953Z,26.90
2019-04-22T12:53:30.046Z,26.70
2019-04-22T12:55:57.393Z,26.80
2019-04-22T12:58:25.587Z,26.90
2019-04-22T13:00:52.852Z,27.00
2019-04-22T13:03:22.200Z,26.70
2019-04-22T13:05:49.485Z,26.80
2019-04-22T13:08:17.880Z,27.10
2019-04-22T13:10:53.320Z,27.50
2019-04-22T13:13:13.536Z,27.60
2019-04-22T13:15:41.261Z,27.80
2019-04-22T13:18:17.084Z,28.00
2019-04-22T13:20:36.658Z,28.20
2019-04-22T13:23:04.030Z,28.10
2019-04-22T13:25:32.434Z,27.40
2019-04-22T13:28:00.890Z,27.20
2019-04-22T13:30:28.409Z,26.90
2019-04-22T13:32:56.623Z,26.90
2019-04-22T13:35:24.620Z,27.00
2019-04-22T13:37:53.060Z,26.90
2019-04-22T13:40:21.064Z,27.20
2019-04-22T13:42:49.076Z,27.40
2019-04-22T13:45:16.095Z,27.50
2019-04-22T13:48:06.292Z,27.60
2019-04-22T13:50:49.888Z,27.50
2019-04-22T13:53:25.535Z,27.30
2019-04-22T13:55:41.211Z,27.30
2019-04-22T13:57:53.347Z,27.10
2019-04-22T14:00:10.292Z,26.90
2019-04-22T14:02:58.231Z,27.00
2019-04-22T14:05:26.799Z,27.10
2019-04-22T14:07:55.654Z,27.30
2019-04-22T14:10:22.812Z,27.30
2019-04-22T14:12:50.845Z,27.10
2019-04-22T14:15:18.344Z,27.00
2019-04-22T14:17:45.420Z,27.00
2019-04-22T14:20:13.161Z,27.00
2019-04-22T14:25:07.663Z,26.80
2019-04-22T14:27:46.221Z,26.90
2019-04-22T14:30:03.430Z,26.90
2019-04-22T14:32:31.805Z,27.10
2019-04-22T14:34:59.055Z,27.20
2019-04-22T14:37:25.777Z,27.30
2019-04-22T14:39:53.837Z,27.60
2019-04-22T14:42:40.208Z,27.40
2019-04-22T14:45:21.935Z,27.40
2019-04-22T14:47:47.582Z,27.50
2019-04-22T14:50:07.982Z,27.40
2019-04-22T14:52:41.198Z,27.00
2019-04-22T14:54:54.362Z,26.90
2019-04-22T14:57:12.960Z,26.80
2019-04-22T14:59:39.953Z,26.50
2019-04-22T15:02:09.789Z,26.40
2019-04-22T15:04:37.323Z,26.40
2019-04-22T15:07:05.294Z,26.30
2019-04-22T15:09:32.320Z,26.20
2019-04-22T15:12:13.429Z,26.00
2019-04-22T15:14:27.924Z,25.90
2019-04-22T15:20:13.947Z,25.80
2019-04-22T15:22:40.991Z,25.70
2019-04-22T15:25:08.355Z,25.60
2019-04-22T15:27:35.331Z,25.50
2019-04-22T15:30:03.562Z,25.50
2019-04-22T15:32:31.670Z,25.40
2019-04-22T15:34:59.623Z,25.40
2019-04-22T15:37:28.191Z,25.30
2019-04-22T15:39:56.662Z,25.20
2019-04-22T15:42:28.651Z,25.20
2019-04-22T15:44:53.785Z,25.10
2019-04-22T15:47:20.838Z,25.10
2019-04-22T15:49:47.876Z,24.90
2019-04-22T15:52:14.769Z,24.80
2019-04-22T15:54:41.679Z,24.80
2019-04-22T15:57:08.892Z,24.80
2019-04-22T15:59:51.864Z,24.80
2019-04-22T16:02:06.067Z,24.70
2019-04-22T16:04:34.603Z,24.60
2019-04-22T16:07:03.170Z,24.60
2019-04-22T16:09:31.281Z,24.60
2019-04-22T16:12:12.884Z,24.60
2019-04-22T16:14:32.803Z,24.70
2019-04-22T16:16:56.698Z,24.60
2019-04-22T16:19:23.608Z,24.70
2019-04-22T16:21:56.478Z,24.80
2019-04-22T16:24:38.113Z,24.90
2019-04-22T16:27:30.393Z,24.90
2019-04-22T16:29:57.276Z,24.90
2019-04-22T16:32:25.417Z,24.90
2019-04-22T16:34:52.558Z,24.80
2019-04-22T16:37:20.818Z,24.60
2019-04-22T16:39:50.263Z,24.60
2019-04-22T16:42:28.919Z,24.50
2019-04-22T16:44:47.436Z,24.40
2019-04-22T16:47:15.383Z,24.20
2019-04-22T16:49:43.512Z,24.20
2019-04-22T16:52:12.067Z,24.10
2019-04-22T16:54:40.074Z,24.10
2019-04-22T16:57:08.125Z,24.00
2019-04-22T16:59:35.237Z,23.90
2019-04-22T17:02:30.849Z,23.80
2019-04-22T17:05:13.852Z,23.80
2019-04-22T17:07:40.641Z,23.70
2019-04-22T17:10:08.239Z,23.70
2019-04-22T17:12:44.516Z,23.60
2019-04-22T17:15:08.255Z,23.60
2019-04-22T17:17:34.442Z,23.50
2019-04-22T17:20:01.213Z,23.40
2019-04-22T17:22:29.361Z,23.40
2019-04-22T17:24:58.154Z,23.30
2019-04-22T17:27:26.480Z,23.20
2019-04-22T17:29:54.649Z,23.20
2019-04-22T17:32:23.477Z,23.10
2019-04-22T17:34:51.719Z,23.00
2019-04-22T17:37:24.628Z,22.90
2019-04-22T17:40:04.332Z,22.80
2019-04-22T17:42:40.262Z,22.80
2019-04-22T17:45:34.155Z,22.70
2019-04-22T17:48:16.882Z,22.60
2019-04-22T17:50:50.939Z,22.60
2019-04-22T17:53:27.965Z,22.50
2019-04-22T17:55:50.591Z,22.40
2019-04-22T17:58:21.204Z,22.40
2019-04-22T18:00:43.483Z,22.30
2019-04-22T18:03:05.730Z,22.30
2019-04-22T18:05:30.614Z,22.30
2019-04-22T18:08:15.450Z,22.10
2019-04-22T18:10:36.165Z,22.10
2019-04-22T18:13:14.000Z,22.00
2019-04-22T18:15:37.701Z,21.90
2019-04-22T18:18:06.870Z,21.70
2019-04-22T18:20:30.794Z,21.60
2019-04-22T18:22:54.435Z,21.50
2019-04-22T18:25:24.385Z,21.40
2019-04-22T18:28:07.135Z,21.40
2019-04-22T18:30:21.867Z,21.30
2019-04-22T18:32:55.836Z,21.20
2019-04-22T18:35:25.188Z,21.00
2019-04-22T18:37:53.470Z,20.90
2019-04-22T18:40:29.288Z,20.80
2019-04-22T18:42:52.507Z,20.70
2019-04-22T18:45:35.363Z,20.50
2019-04-22T18:47:44.241Z,20.40
2019-04-22T18:50:21.976Z,20.20
2019-04-22T18:53:25.253Z,19.90
2019-04-22T18:55:44.261Z,19.70
2019-04-22T18:58:09.061Z,19.60
2019-04-22T19:00:29.205Z,19.40
2019-04-22T19:03:04.906Z,19.20
2019-04-22T19:05:40.110Z,19.10
2019-04-22T19:08:18.177Z,19.00
2019-04-22T19:10:51.852Z,18.90
2019-04-22T19:13:49.016Z,18.80
2019-04-22T19:15:43.249Z,18.60
2019-04-22T19:18:21.027Z,18.70
2019-04-22T19:20:49.833Z,18.60
2019-04-22T19:23:16.482Z,18.40
2019-04-22T19:25:29.078Z,18.30
2019-04-22T19:28:11.605Z,18.40
2019-04-22T19:30:36.650Z,18.30
2019-04-22T19:33:08.942Z,18.30
2019-04-22T19:35:26.630Z,18.20
2019-04-22T19:37:56.255Z,18.20
2019-04-22T19:40:40.667Z,18.10
2019-04-22T19:43:02.421Z,18.10
2019-04-22T19:45:28.731Z,18.00
2019-04-22T19:48:06.570Z,18.00
2019-04-22T19:50:27.345Z,18.00
2019-04-22T19:52:59.923Z,18.00
2019-04-22T19:55:23.846Z,17.90
2019-04-22T19:57:50.720Z,17.70
2019-04-22T20:00:41.971Z,17.60
2019-04-22T20:04:03.452Z,17.50
2019-04-22T20:06:39.582Z,17.40
2019-04-22T20:09:07.566Z,17.30
2019-04-22T20:11:34.083Z,17.20
2019-04-22T20:14:06.228Z,17.10
2019-04-22T20:16:27.549Z,17.00
2019-04-22T20:19:06.964Z,16.90
2019-04-22T20:23:15.916Z,16.90
2019-04-22T20:25:40.733Z,16.80
2019-04-22T20:31:03.987Z,16.50
2019-04-22T20:33:35.289Z,16.40
2019-04-22T20:36:03.726Z,16.20
2019-04-22T20:38:31.070Z,16.00
2019-04-22T20:40:58.086Z,16.00
2019-04-22T20:43:36.927Z,15.80
2019-04-22T20:45:59.207Z,15.80
2019-04-22T20:48:22.250Z,15.70
2019-04-22T20:50:59.599Z,15.70
2019-04-22T20:53:32.911Z,15.80
2019-04-22T20:55:52.523Z,15.90
2019-04-22T20:58:28.534Z,15.90
2019-04-22T21:00:46.308Z,15.90
2019-04-22T21:03:17.476Z,15.90
2019-04-22T21:05:44.477Z,15.80
2019-04-22T21:08:23.935Z,15.70
2019-04-22T21:10:44.570Z,15.60
2019-04-22T21:13:15.503Z,15.60
2019-04-22T21:15:50.474Z,15.50
2019-04-22T21:18:13.404Z,15.40
2019-04-22T21:20:49.512Z,15.40
2019-04-22T21:23:16.469Z,15.30
2019-04-22T21:25:36.865Z,15.30
2019-04-22T21:28:14.463Z,15.40
2019-04-22T21:30:43.381Z,15.50
2019-04-22T21:33:13.479Z,15.60
2019-04-22T21:35:59.563Z,15.60
2019-04-22T21:38:19.637Z,15.70
2019-04-22T21:40:40.359Z,15.90
2019-04-22T21:43:13.388Z,16.10
2019-04-22T21:45:32.221Z,16.30
2019-04-22T21:48:24.110Z,16.40
2019-04-22T21:50:50.240Z,16.50
2019-04-22T21:53:17.707Z,16.60
2019-04-22T21:55:43.708Z,16.70
2019-04-22T21:58:19.505Z,16.70
2019-04-22T22:01:17.087Z,16.80
2019-04-22T22:03:42.857Z,16.80
2019-04-22T22:06:02.332Z,16.90
2019-04-22T22:08:42.742Z,17.00
2019-04-22T22:11:07.921Z,17.00
2019-04-22T22:13:41.411Z,17.10
2019-04-22T22:16:05.171Z,17.10
2019-04-22T22:18:30.356Z,17.10
2019-04-22T22:21:19.426Z,17.10
2019-04-22T22:23:38.812Z,17.10
2019-04-22T22:25:59.644Z,17.20
2019-04-22T22:28:45.482Z,17.10
2019-04-22T22:31:11.723Z,17.10
2019-04-22T22:33:31.969Z,17.20
2019-04-22T22:35:58.444Z,17.10
2019-04-22T22:38:27.053Z,17.10
2019-04-22T22:40:41.553Z,17.10
2019-04-22T22:43:17.219Z,17.00
2019-04-22T22:45:44.967Z,17.00
2019-04-22T22:48:32.097Z,17.00
2019-04-22T22:50:50.902Z,16.90
2019-04-22T22:53:34.297Z,16.70
2019-04-22T22:55:54.793Z,16.60
2019-04-22T22:58:24.673Z,16.40
2019-04-22T23:00:44.409Z,16.30
2019-04-22T23:03:40.527Z,16.20
2019-04-22T23:06:03.603Z,16.00
2019-04-22T23:08:25.713Z,15.90
2019-04-22T23:11:07.117Z,15.90
2019-04-22T23:13:21.550Z,15.80
2019-04-22T23:15:46.692Z,15.80
2019-04-22T23:17:58.108Z,15.80
2019-04-22T23:20:31.227Z,15.80
2019-04-22T23:23:13.739Z,15.70
2019-04-22T23:25:50.033Z,15.70
2019-04-22T23:28:30.076Z,15.70
2019-04-22T23:31:14.406Z,15.70
2019-04-22T23:33:52.608Z,15.70
2019-04-22T23:36:37.084Z,15.70
2019-04-22T23:39:15.742Z,15.60
2019-04-22T23:44:20.155Z,15.70
2019-04-22T23:46:59.831Z,15.80
2019-04-22T23:49:25.266Z,15.70
2019-04-22T23:52:11.421Z,15.80
2019-04-22T23:54:39.026Z,15.80
2019-04-22T23:56:57.071Z,15.70
2019-04-22T23:59:44.911Z,15.80
